DW8923 Weather Reports


Display with metric or nautical units.
time (UTC)temp
F
wind
direction
speed
MPH
gust
MPH
rain 1hr
in
rain 24hr
in
rain mn
in
humidity
%
barometer
mb
20220522140056 64 347 4.0 15.0 0.00 0.00 0.00 73 1020.6
20220522134546 63 350 2.0 10.0 0.00 0.00 0.00 73 1020.5
20220522133056 63 344 5.0 11.0 0.00 0.00 0.00 72 1020.2
20220522131604 63 338 5.0 14.0 0.00 0.00 0.00 72 1019.6
20220522130054 63 326 4.0 15.0 0.00 0.00 0.00 72 1019.8
20220522124540 62 42 4.0 14.0 0.00 0.00 0.00 72 1019.5
20220522123037 62 310 4.0 10.0 0.00 0.00 0.00 73 1019.4
20220522121537 62 12 5.0 9.0 0.00 0.00 0.00 73 1019.7
20220522120037 62 27 3.0 6.0 0.00 0.00 0.00 72 1019.4
20220522114532 62 5 5.0 10.0 0.00 0.00 0.00 72 1019.0
20220522113029 62 342 4.0 12.0 0.00 0.00 0.00 72 1018.7
20220522111527 62 11 4.0 11.0 0.00 0.00 0.00 72 1018.4
20220522110026 62 15 6.0 12.0 0.00 0.00 0.00 72 1018.3
20220522104523 62 51 5.0 12.0 0.00 0.00 0.00 73 1018.2
20220522103019 62 5 5.0 13.0 0.00 0.00 0.00 73 1017.7
20220522101517 62 355 4.0 14.0 0.00 0.00 0.00 74 1017.4
20220522100016 62 329 5.0 13.0 0.00 0.00 0.00 75 1016.9
20220522094512 62 17 3.0 12.0 0.00 0.00 0.00 77 1016.5
20220522093010 62 315 2.0 8.0 0.00 0.00 0.00 78 1016.5
20220522091517 62 340 1.0 6.0 0.00 0.00 0.00 79 1016.2
20220522090007 62 302 1.0 5.0 0.00 0.00 0.00 80 1015.7
20220522084506 62 309 2.0 9.0 0.00 0.00 0.00 80 1015.1
20220522083010 62 318 4.0 12.0 0.00 0.00 0.00 81 1014.6
20220522081503 62 298 3.0 10.0 0.00 0.00 0.00 81 1014.5
20220522080002 63 340 3.0 9.0 0.00 0.00 0.00 82 1014.4
20220522074605 63 307 3.0 11.0 0.00 0.00 0.00 83 1014.4
20220522073058 63 340 3.0 12.0 0.00 0.00 0.00 83 1014.7
20220522071614 64 40 3.0 13.0 0.00 0.00 0.00 83 1015.2
20220522070055 64 351 3.0 10.0 0.00 0.00 0.00 84 1015.4
20220522064553 64 9 4.0 12.0 0.00 0.00 0.00 83 1015.4
20220522063050 65 348 4.0 17.0 0.00 0.00 0.00 82 1015.6
20220522061548 65 25 6.0 16.0 0.00 0.00 0.00 82 1016.0
20220522060102 66 34 8.0 17.0 0.00 0.00 0.00 82 1015.8
20220522054541 66 46 3.0 10.0 0.00 0.00 0.00 83 1016.1
20220522053037 67 342 4.0 12.0 0.00 0.00 0.00 84 1015.2
20220522051533 69 342 3.0 8.0 0.00 0.00 0.00 87 1014.2
20220522050042 70 58 1.0 4.0 0.00 0.00 0.00 86 1014.2
20220522044533 71 265 3.0 8.0 0.00 0.00 0.00 84 1014.0
20220522043021 73 19 6.0 15.0 0.00 0.00 0.00 76 1012.8
20220522041517 74 313 2.0 8.0 0.00 0.00 0.00 72 1014.6
20220522040012 74 27 4.0 12.0 0.00 0.00 0.00 70 1013.1
20220522034508 75 355 3.0 13.0 0.00 0.00 0.00 66 1012.9
20220522033007 75 331 3.0 11.0 0.00 0.00 0.00 64 1012.7
20220522031506 76 309 5.0 12.0 0.00 0.00 0.00 62 1011.7
20220522030001 76 341 1.0 5.0 0.00 0.00 0.00 64 1011.4
20220522024556 77 115 4.0 8.0 0.00 0.00 0.00 64 1010.3
20220522023056 77 80 0.0 4.0 0.00 0.00 0.00 66 1010.5
20220522021602 77 59 1.0 6.0 0.00 0.00 0.00 65 1010.3
20220522020058 78 23 4.0 8.0 0.00 0.00 0.00 64 1009.8
20220522014552 79 5 2.0 9.0 0.00 0.00 0.00 63 1009.5
20220522013052 81 15 3.0 9.0 0.00 0.00 0.00 61 1009.9
20220522011551 82 331 2.0 5.0 0.00 0.00 0.00 60 1009.5
20220522010046 83 334 3.0 8.0 0.00 0.00 0.00 59 1009.5
20220522004548 85 315 4.0 12.0 0.00 0.00 0.00 57 1009.4
20220522003052 90 331 2.0 4.0 0.00 0.00 0.00 54 1008.9
20220522001547 90 36 0.0 2.0 0.00 0.00 0.00 53 1008.7
20220522000037 91 36 0.0 2.0 0.00 0.00 0.00 53 1008.5
20220521234544 91 48 1.0 4.0 0.00 0.00 0.00 52 1008.4
20220521233034 92 47 0.0 1.0 0.00 0.00 0.00 51 1008.1
20220521231534 92 47 0.0 2.0 0.00 0.00 0.00 51 1007.9
20220521230036 92 75 0.0 3.0 0.00 0.00 0.00 50 1007.9
20220521224533 92 105 1.0 3.0 0.00 0.00 0.00 50 1007.8
20220521223033 92 142 1.0 3.0 0.00 0.00 0.00 50 1007.8
20220521221547 92 323 0.0 8.0 0.00 0.00 0.00 50 1007.9
20220521220036 92 121 3.0 8.0 0.00 0.00 0.00 50 1007.3
20220521214533 92 109 4.0 11.0 0.00 0.00 0.00 51 1006.8
20220521213033 93 115 5.0 10.0 0.00 0.00 0.00 49 1006.9
20220521211529 94 144 4.0 9.0 0.00 0.00 0.00 47 1007.5
20220521210034 94 129 1.0 5.0 0.00 0.00 0.00 47 1007.7
20220521204535 95 128 1.0 10.0 0.00 0.00 0.00 48 1007.6
20220521203025 94 132 6.0 12.0 0.00 0.00 0.00 48 1007.5
20220521201525 94 170 6.0 10.0 0.00 0.00 0.00 47 1007.5
20220521200036 95 134 3.0 11.0 0.00 0.00 0.00 51 1007.7
20220521194522 93 155 5.0 9.0 0.00 0.00 0.00 48 1007.8
20220521193019 93 123 5.0 10.0 0.00 0.00 0.00 48 1007.9
20220521191517 93 176 6.0 10.0 0.00 0.00 0.00 51 1007.9
20220521190017 93 138 5.0 11.0 0.00 0.00 0.00 51 1008.0
20220521184513 92 205 3.0 8.0 0.00 0.00 0.00 53 1008.0
20220521183009 92 158 2.0 10.0 0.00 0.00 0.00 52 1008.2
20220521181506 91 55 4.0 11.0 0.00 0.00 0.00 54 1008.1
20220521180004 90 121 7.0 16.0 0.00 0.00 0.00 55 1008.0
20220521174501 90 192 7.0 17.0 0.00 0.00 0.00 57 1008.1
20220521173058 89 203 6.0 16.0 0.00 0.00 0.00 58 1008.1
20220521171556 88 170 6.0 12.0 0.00 0.00 0.00 60 1008.2
20220521170051 87 148 5.0 10.0 0.00 0.00 0.00 62 1008.1
20220521164605 86 153 6.0 12.0 0.00 0.00 0.00 63 1008.1
20220521163048 87 154 7.0 15.0 0.00 0.00 0.00 63 1008.0
20220521161544 86 151 5.0 11.0 0.00 0.00 0.00 65 1007.9
20220521160044 85 120 7.0 14.0 0.00 0.00 0.00 66 1007.9
20220521154539 84 173 6.0 13.0 0.00 0.00 0.00 67 1007.8
20220521153038 83 179 6.0 16.0 0.00 0.00 0.00 69 1007.7
20220521151535 83 196 5.0 11.0 0.00 0.00 0.00 73 1007.7
20220521150029 81 184 8.0 15.0 0.00 0.00 0.00 74 1007.6
20220521144530 80 179 4.0 13.0 0.00 0.00 0.00 77 1007.6
20220521143024 80 147 6.0 15.0 0.00 0.00 0.00 78 1007.6
20220521141524 79 131 7.0 13.0 0.00 0.00 0.00 80 1007.4